createdAt,value
2022-12-11T00:00:14.053Z,105.57
2022-12-11T00:02:40.786Z,105.07
2022-12-11T00:05:08.057Z,105.43
2022-12-11T00:07:35.004Z,101.83
2022-12-11T00:10:01.692Z,95.17
2022-12-11T00:12:32.763Z,91.13
2022-12-11T00:14:59.769Z,107.50
2022-12-11T00:17:26.670Z,101.43
2022-12-11T00:19:53.355Z,108.23
2022-12-11T00:22:20.121Z,105.13
2022-12-11T00:24:47.413Z,105.70
2022-12-11T00:27:14.146Z,99.03
2022-12-11T00:29:40.860Z,106.43
2022-12-11T00:32:07.674Z,115.23
2022-12-11T00:34:34.513Z,109.20
2022-12-11T00:37:01.271Z,114.03
2022-12-11T00:39:30.639Z,109.93
2022-12-11T00:41:58.379Z,115.33
2022-12-11T00:44:26.312Z,99.00
2022-12-11T00:46:55.846Z,105.87
2022-12-11T00:49:22.623Z,110.97
2022-12-11T00:51:51.230Z,122.17
2022-12-11T00:54:18.060Z,105.13
2022-12-11T00:56:44.978Z,107.00
2022-12-11T00:59:11.712Z,108.00
2022-12-11T01:01:38.947Z,101.30
2022-12-11T01:04:05.968Z,102.93
2022-12-11T01:06:32.702Z,107.23
2022-12-11T01:09:18.326Z,93.83
2022-12-11T01:11:47.881Z,109.90
2022-12-11T01:14:19.052Z,109.90
2022-12-11T01:16:47.725Z,93.53
2022-12-11T01:19:14.804Z,102.67
2022-12-11T01:21:43.101Z,97.37
2022-12-11T01:24:09.865Z,90.07
2022-12-11T01:26:36.662Z,93.30
2022-12-11T01:29:03.574Z,88.97
2022-12-11T01:31:30.412Z,84.83
2022-12-11T01:33:57.247Z,94.03
2022-12-11T01:36:24.465Z,88.57
2022-12-11T01:38:51.723Z,96.60
2022-12-11T01:41:19.229Z,103.47
2022-12-11T01:44:04.862Z,92.60
2022-12-11T01:46:34.020Z,94.40
2022-12-11T01:49:05.396Z,95.77
2022-12-11T01:51:36.140Z,84.97
2022-12-11T01:54:09.243Z,82.40
2022-12-11T01:56:41.937Z,90.93
2022-12-11T01:59:10.085Z,79.47
2022-12-11T02:01:59.634Z,86.90
2022-12-11T02:04:26.929Z,82.07
2022-12-11T02:06:54.570Z,84.50
2022-12-11T02:09:27.860Z,86.30
2022-12-11T02:12:26.350Z,72.70
2022-12-11T02:15:23.429Z,72.87
2022-12-11T02:17:56.427Z,64.20
2022-12-11T02:20:26.379Z,75.27
2022-12-11T02:23:12.639Z,79.90
2022-12-11T02:26:24.574Z,70.93
2022-12-11T02:28:57.032Z,73.23
2022-12-11T02:31:39.970Z,71.53
2022-12-11T02:34:18.949Z,60.70
2022-12-11T02:36:51.965Z,66.17
2022-12-11T02:39:22.493Z,67.83
2022-12-11T02:41:51.255Z,67.43
2022-12-11T02:44:24.735Z,63.43
2022-12-11T02:46:52.833Z,64.57
2022-12-11T02:49:22.268Z,61.87
2022-12-11T02:51:50.804Z,68.13
2022-12-11T02:54:23.525Z,61.67
2022-12-11T02:57:04.939Z,59.80
2022-12-11T02:59:37.040Z,58.73
2022-12-11T03:02:04.857Z,63.13
2022-12-11T03:04:33.867Z,57.03
2022-12-11T03:07:12.141Z,58.77
2022-12-11T03:09:41.407Z,55.60
2022-12-11T03:12:11.745Z,57.23
2022-12-11T03:14:40.651Z,57.47
2022-12-11T03:17:23.849Z,69.03
2022-12-11T03:20:00.810Z,56.37
2022-12-11T03:22:38.665Z,62.47
2022-12-11T03:25:12.792Z,56.73
2022-12-11T03:27:45.846Z,56.83
2022-12-11T03:30:17.505Z,54.03
2022-12-11T03:32:54.683Z,59.13
2022-12-11T03:35:36.276Z,51.23
2022-12-11T03:38:08.548Z,51.33
2022-12-11T03:40:40.708Z,51.37
2022-12-11T03:43:10.903Z,52.30
2022-12-11T03:45:40.224Z,49.93
2022-12-11T03:48:09.467Z,52.13
2022-12-11T03:50:37.172Z,49.27
2022-12-11T03:53:04.971Z,52.30
2022-12-11T03:55:34.004Z,46.03
2022-12-11T03:58:00.795Z,50.37
2022-12-11T04:00:28.646Z,45.33
2022-12-11T04:03:14.364Z,46.37
2022-12-11T04:05:44.533Z,46.00
2022-12-11T04:08:11.749Z,39.40
2022-12-11T04:10:39.184Z,42.70
2022-12-11T04:13:06.057Z,39.63
2022-12-11T04:15:33.188Z,38.63
2022-12-11T04:18:18.863Z,35.30
2022-12-11T04:21:04.123Z,39.23
2022-12-11T04:23:49.622Z,37.77
2022-12-11T04:26:20.001Z,40.80
2022-12-11T04:28:48.403Z,36.83
2022-12-11T04:31:18.306Z,42.17
2022-12-11T04:33:45.708Z,34.67
2022-12-11T04:36:13.362Z,37.40
2022-12-11T04:38:43.069Z,37.00
2022-12-11T04:41:12.320Z,36.30
2022-12-11T04:43:45.277Z,34.83
2022-12-11T04:46:20.901Z,36.20
2022-12-11T04:48:52.438Z,40.10
2022-12-11T04:51:22.365Z,37.30
2022-12-11T04:53:49.260Z,36.30
2022-12-11T04:56:16.763Z,37.17
2022-12-11T04:58:44.340Z,35.00
2022-12-11T05:01:16.455Z,37.23
2022-12-11T05:03:43.295Z,30.97
2022-12-11T05:06:10.543Z,39.00
2022-12-11T05:08:40.311Z,32.93
2022-12-11T05:11:09.848Z,35.20
2022-12-11T05:13:36.659Z,32.87
2022-12-11T05:16:08.499Z,35.37
2022-12-11T05:18:38.727Z,32.07
2022-12-11T05:21:08.693Z,28.23
2022-12-11T05:23:36.082Z,30.03
2022-12-11T05:26:05.785Z,27.83
2022-12-11T05:28:35.788Z,30.37
2022-12-11T05:31:07.151Z,35.20
2022-12-11T05:33:34.314Z,33.90
2022-12-11T05:36:01.450Z,30.73
2022-12-11T05:38:28.182Z,33.03
2022-12-11T05:41:07.678Z,34.60
2022-12-11T05:43:36.820Z,33.97
2022-12-11T05:46:21.965Z,36.77
2022-12-11T05:48:51.534Z,33.77
2022-12-11T05:51:19.464Z,30.73
2022-12-11T05:53:47.844Z,35.93
2022-12-11T05:56:24.559Z,33.57
2022-12-11T05:58:51.813Z,34.40
2022-12-11T06:01:25.382Z,35.73
2022-12-11T06:03:53.688Z,34.13
2022-12-11T06:06:20.698Z,32.43
2022-12-11T06:08:50.985Z,33.07
2022-12-11T06:11:24.219Z,31.73
2022-12-11T06:13:52.424Z,35.90
2022-12-11T06:16:20.042Z,34.83
2022-12-11T06:18:47.158Z,35.83
2022-12-11T06:21:26.873Z,33.57
2022-12-11T06:23:55.854Z,30.77
2022-12-11T06:26:22.659Z,35.17
2022-12-11T06:28:50.115Z,33.63
2022-12-11T06:31:17.821Z,29.47
2022-12-11T06:33:44.765Z,32.73
2022-12-11T06:36:17.657Z,32.07
2022-12-11T06:38:45.372Z,31.07
2022-12-11T06:41:12.744Z,27.07
2022-12-11T06:43:40.392Z,28.33
2022-12-11T06:46:18.756Z,29.57
2022-12-11T06:48:49.607Z,25.33
2022-12-11T06:51:19.267Z,29.73
2022-12-11T06:53:51.079Z,28.03
2022-12-11T06:56:26.950Z,28.13
2022-12-11T06:58:53.997Z,29.90
2022-12-11T07:01:26.290Z,30.40
2022-12-11T07:03:54.722Z,29.73
2022-12-11T07:06:21.986Z,29.50
2022-12-11T07:08:51.902Z,30.30
2022-12-11T07:11:19.882Z,29.00
2022-12-11T07:13:47.513Z,35.67
2022-12-11T07:16:15.918Z,26.50
2022-12-11T07:18:53.167Z,25.93
2022-12-11T07:21:21.324Z,27.47
2022-12-11T07:23:49.335Z,30.53
2022-12-11T07:26:19.498Z,26.23
2022-12-11T07:28:46.634Z,30.53
2022-12-11T07:31:16.813Z,28.83
2022-12-11T07:33:43.858Z,33.40
2022-12-11T07:36:15.176Z,26.60
2022-12-11T07:38:41.993Z,26.63
2022-12-11T07:41:11.580Z,29.90
2022-12-11T07:43:41.943Z,31.43
2022-12-11T07:46:15.635Z,35.07
2022-12-11T07:48:44.678Z,27.10
2022-12-11T07:51:15.576Z,32.93
2022-12-11T07:53:44.178Z,28.57
2022-12-11T07:56:11.727Z,27.20
2022-12-11T07:58:39.055Z,29.77
2022-12-11T08:01:13.969Z,27.60
2022-12-11T08:03:41.007Z,26.23
2022-12-11T08:06:08.251Z,31.27
2022-12-11T08:08:38.046Z,25.93
2022-12-11T08:11:06.717Z,26.10
2022-12-11T08:13:33.633Z,26.93
2022-12-11T08:16:07.343Z,28.77
2022-12-11T08:18:37.900Z,29.40
2022-12-11T08:21:13.111Z,26.33
2022-12-11T08:23:39.885Z,25.80
2022-12-11T08:26:09.406Z,24.97
2022-12-11T08:28:36.381Z,27.53
2022-12-11T08:31:11.379Z,24.60
2022-12-11T08:33:40.013Z,22.93
2022-12-11T08:36:08.773Z,28.37
2022-12-11T08:38:38.774Z,26.93
2022-12-11T08:41:23.357Z,25.23
2022-12-11T08:43:54.891Z,25.17
2022-12-11T08:46:27.154Z,26.63
2022-12-11T08:48:55.105Z,26.03
2022-12-11T08:51:25.715Z,25.63
2022-12-11T08:53:56.179Z,27.10
2022-12-11T08:56:23.774Z,23.60
2022-12-11T08:58:51.983Z,26.00
2022-12-11T09:01:26.041Z,27.67
2022-12-11T09:03:54.751Z,27.03
2022-12-11T09:06:24.200Z,27.60
2022-12-11T09:08:56.156Z,25.63
2022-12-11T09:11:29.064Z,31.60
2022-12-11T09:13:55.887Z,29.43
2022-12-11T09:16:24.980Z,28.83
2022-12-11T09:18:53.565Z,28.43
2022-12-11T09:21:22.547Z,37.67
2022-12-11T09:23:49.513Z,30.37
2022-12-11T09:26:18.323Z,26.83
2022-12-11T09:28:46.940Z,30.93
2022-12-11T09:31:23.644Z,28.60
2022-12-11T09:33:52.061Z,30.37
2022-12-11T09:36:19.053Z,26.43
2022-12-11T09:38:46.511Z,27.47
2022-12-11T09:41:31.646Z,29.73
2022-12-11T09:44:31.324Z,29.40
2022-12-11T09:46:59.184Z,30.87
2022-12-11T09:49:25.836Z,26.93
2022-12-11T09:52:01.842Z,27.63
2022-12-11T09:54:28.808Z,27.87
2022-12-11T09:56:57.622Z,28.93
2022-12-11T09:59:43.743Z,28.50
2022-12-11T10:02:39.007Z,27.17
2022-12-11T10:05:36.457Z,26.50
2022-12-11T10:08:14.304Z,29.53
2022-12-11T10:10:54.618Z,28.90
2022-12-11T10:13:46.313Z,28.40
2022-12-11T10:16:35.011Z,32.47
2022-12-11T10:19:04.486Z,33.00
2022-12-11T10:21:39.984Z,32.83
2022-12-11T10:24:29.358Z,33.37
2022-12-11T10:27:15.556Z,32.33
2022-12-11T10:29:42.400Z,31.33
2022-12-11T10:32:22.876Z,34.47
2022-12-11T10:34:57.350Z,29.17
2022-12-11T10:37:24.352Z,30.60
2022-12-11T10:39:51.121Z,34.37
2022-12-11T10:42:20.562Z,29.00
2022-12-11T10:45:01.839Z,32.83
2022-12-11T10:47:29.162Z,35.23
2022-12-11T10:50:03.854Z,28.83
2022-12-11T10:52:44.478Z,31.67
2022-12-11T10:55:23.479Z,37.13
2022-12-11T10:58:02.714Z,36.73
2022-12-11T11:00:38.446Z,34.47
2022-12-11T11:03:20.038Z,36.23
2022-12-11T11:05:49.537Z,31.43
2022-12-11T11:08:21.609Z,38.03
2022-12-11T11:10:57.283Z,34.97
2022-12-11T11:13:26.448Z,35.33
2022-12-11T11:16:09.888Z,42.50
2022-12-11T11:18:37.390Z,37.63
2022-12-11T11:21:04.444Z,37.33
2022-12-11T11:23:31.289Z,35.93
2022-12-11T11:26:00.756Z,40.90
2022-12-11T11:28:36.032Z,39.83
2022-12-11T11:31:06.312Z,42.43
2022-12-11T11:33:45.511Z,37.90
2022-12-11T11:36:22.185Z,38.07
2022-12-11T11:39:03.968Z,40.07
2022-12-11T11:41:55.281Z,38.20
2022-12-11T11:44:30.055Z,39.13
2022-12-11T11:47:23.332Z,42.30
2022-12-11T11:50:03.847Z,40.90
2022-12-11T11:52:38.217Z,41.73
2022-12-11T11:55:21.476Z,42.57
2022-12-11T11:58:01.120Z,38.87
2022-12-11T12:00:33.647Z,43.03
2022-12-11T12:03:16.185Z,38.63
2022-12-11T12:05:55.627Z,42.73
2022-12-11T12:08:46.378Z,40.20
2022-12-11T12:11:41.290Z,41.17
2022-12-11T12:14:51.044Z,41.17
2022-12-11T12:17:38.074Z,36.77
2022-12-11T12:20:13.678Z,35.77
2022-12-11T12:23:08.278Z,38.40
2022-12-11T12:25:54.109Z,35.37
2022-12-11T12:28:45.112Z,37.83
2022-12-11T12:31:27.879Z,38.73
2022-12-11T12:34:33.288Z,40.00
2022-12-11T12:37:27.512Z,38.67
2022-12-11T12:40:00.180Z,38.60
2022-12-11T12:43:08.435Z,39.70
2022-12-11T12:45:56.198Z,42.93
2022-12-11T12:48:24.983Z,41.17
2022-12-11T12:50:52.027Z,38.33
2022-12-11T12:53:23.645Z,40.83
2022-12-11T12:55:51.569Z,38.27
2022-12-11T12:58:35.661Z,35.30
2022-12-11T13:01:19.389Z,35.17
2022-12-11T13:04:05.741Z,35.07
2022-12-11T13:06:45.494Z,33.40
2022-12-11T13:09:25.915Z,34.03
2022-12-11T13:11:59.762Z,34.87
2022-12-11T13:14:33.757Z,34.50
2022-12-11T13:17:21.769Z,32.33
2022-12-11T13:19:50.763Z,32.93
2022-12-11T13:22:17.514Z,34.07
2022-12-11T13:24:53.422Z,35.10
2022-12-11T13:27:43.728Z,29.33
2022-12-11T13:30:24.720Z,35.40
2022-12-11T13:33:14.549Z,32.13
2022-12-11T13:35:41.751Z,33.73
2022-12-11T13:38:17.580Z,28.73
2022-12-11T13:40:46.748Z,30.13
2022-12-11T13:43:23.664Z,30.40
2022-12-11T13:46:02.172Z,27.37
2022-12-11T13:48:37.889Z,33.30
2022-12-11T13:51:06.167Z,27.53
2022-12-11T13:53:36.220Z,28.17
2022-12-11T13:56:13.871Z,27.27
2022-12-11T13:58:40.784Z,25.67
2022-12-11T14:01:11.489Z,29.33
2022-12-11T14:03:53.881Z,21.27
2022-12-11T14:06:20.709Z,26.37
2022-12-11T14:08:53.145Z,25.17
2022-12-11T14:11:27.933Z,19.80
2022-12-11T14:13:59.616Z,22.03
2022-12-11T14:16:27.797Z,19.57
2022-12-11T14:19:02.200Z,20.33
2022-12-11T14:21:31.143Z,20.30
2022-12-11T14:24:00.561Z,18.73
2022-12-11T14:26:30.283Z,19.47
2022-12-11T14:28:57.070Z,18.30
2022-12-11T14:31:29.669Z,20.20
2022-12-11T14:34:12.743Z,20.67
2022-12-11T14:36:41.132Z,21.27
2022-12-11T14:39:14.328Z,21.80
2022-12-11T14:42:10.494Z,21.03
2022-12-11T14:44:50.339Z,25.93
2022-12-11T14:47:21.551Z,22.03
2022-12-11T14:50:09.390Z,21.03
2022-12-11T14:52:41.178Z,17.97
2022-12-11T14:55:20.708Z,19.03
2022-12-11T14:57:51.659Z,25.27
2022-12-11T15:00:38.231Z,23.37
2022-12-11T15:03:22.995Z,20.17
2022-12-11T15:05:51.596Z,18.63
2022-12-11T15:08:24.824Z,18.37
2022-12-11T15:11:30.042Z,25.20
2022-12-11T15:14:00.240Z,21.50
2022-12-11T15:16:31.592Z,19.37
2022-12-11T15:18:58.831Z,22.40
2022-12-11T15:21:33.935Z,20.00
2022-12-11T15:24:04.022Z,21.57
2022-12-11T15:26:33.793Z,19.57
2022-12-11T15:29:27.239Z,22.83
2022-12-11T15:32:14.147Z,18.87
2022-12-11T15:34:59.042Z,20.43
2022-12-11T15:37:28.585Z,22.70
2022-12-11T15:39:56.960Z,21.10
2022-12-11T15:42:26.765Z,21.93
2022-12-11T15:44:55.488Z,19.20
2022-12-11T15:47:25.677Z,24.20
2022-12-11T15:49:59.386Z,22.93
2022-12-11T15:52:26.275Z,21.73
2022-12-11T15:54:53.133Z,23.57
2022-12-11T15:57:22.959Z,20.17
2022-12-11T15:59:52.676Z,19.93
2022-12-11T16:02:19.437Z,24.20
2022-12-11T16:04:46.377Z,21.13
2022-12-11T16:07:23.021Z,21.03
2022-12-11T16:09:49.846Z,21.10
2022-12-11T16:12:17.108Z,21.63
2022-12-11T16:14:45.274Z,21.97
2022-12-11T16:17:14.885Z,21.73
2022-12-11T16:19:43.367Z,22.00
2022-12-11T16:22:11.510Z,22.03
2022-12-11T16:24:41.163Z,20.73
2022-12-11T16:27:11.571Z,20.80
2022-12-11T16:29:40.694Z,24.77
2022-12-11T16:32:08.351Z,29.60
2022-12-11T16:34:37.322Z,23.40
2022-12-11T16:37:10.930Z,25.73
2022-12-11T16:39:38.600Z,26.10
2022-12-11T16:42:06.505Z,26.10
2022-12-11T16:44:33.391Z,22.20
2022-12-11T16:47:00.114Z,25.47
2022-12-11T16:49:27.003Z,22.63
2022-12-11T16:51:53.885Z,20.60
2022-12-11T16:54:20.576Z,22.87
2022-12-11T16:56:47.465Z,27.33
2022-12-11T16:59:14.158Z,23.17
2022-12-11T17:01:44.945Z,21.17
2022-12-11T17:04:11.745Z,19.50
2022-12-11T17:06:38.574Z,20.30
2022-12-11T17:09:05.371Z,24.20
2022-12-11T17:11:32.118Z,21.87
2022-12-11T17:14:02.922Z,21.37
2022-12-11T17:16:33.974Z,22.57
2022-12-11T17:19:00.844Z,20.83
2022-12-11T17:21:27.610Z,22.10
2022-12-11T17:23:54.416Z,22.33
2022-12-11T17:26:21.316Z,26.93
2022-12-11T17:28:48.300Z,25.47
2022-12-11T17:31:19.340Z,22.03
2022-12-11T17:33:46.995Z,21.50
2022-12-11T17:36:17.692Z,21.33
2022-12-11T17:38:47.792Z,19.87
2022-12-11T17:41:20.501Z,22.63
2022-12-11T17:43:49.549Z,24.00
2022-12-11T17:46:16.948Z,22.57
2022-12-11T17:48:46.347Z,22.57
2022-12-11T17:51:20.944Z,25.53
2022-12-11T17:53:48.029Z,28.20
2022-12-11T17:56:14.837Z,24.47
2022-12-11T17:58:41.918Z,24.73
2022-12-11T18:01:09.989Z,23.63
2022-12-11T18:03:38.018Z,23.83
2022-12-11T18:06:11.402Z,23.97
2022-12-11T18:08:39.561Z,21.93
2022-12-11T18:11:19.649Z,22.60
2022-12-11T18:13:46.657Z,24.30
2022-12-11T18:16:17.396Z,23.00
2022-12-11T18:18:46.291Z,22.27
2022-12-11T18:21:15.828Z,29.50
2022-12-11T18:23:42.913Z,26.53
2022-12-11T18:26:11.738Z,27.17
2022-12-11T18:28:41.163Z,25.80
2022-12-11T18:31:09.753Z,23.20
2022-12-11T18:33:38.932Z,23.87
2022-12-11T18:36:06.576Z,23.77
2022-12-11T18:38:34.066Z,23.67
2022-12-11T18:41:05.448Z,27.50
2022-12-11T18:43:32.471Z,25.63
2022-12-11T18:45:59.644Z,24.63
2022-12-11T18:48:32.382Z,22.20
2022-12-11T18:50:59.224Z,22.17
2022-12-11T18:53:28.942Z,24.13
2022-12-11T18:56:00.232Z,23.27
2022-12-11T18:58:27.433Z,22.37
2022-12-11T19:00:54.326Z,21.57
2022-12-11T19:03:21.071Z,21.40
2022-12-11T19:05:47.742Z,25.83
2022-12-11T19:08:16.171Z,21.43
2022-12-11T19:10:47.346Z,22.20
2022-12-11T19:13:14.893Z,22.43
2022-12-11T19:15:43.096Z,24.57
2022-12-11T19:18:10.652Z,23.33
2022-12-11T19:20:49.199Z,21.90
2022-12-11T19:23:17.747Z,21.33
2022-12-11T19:25:47.671Z,22.97
2022-12-11T19:28:15.440Z,21.87
2022-12-11T19:30:49.927Z,23.00
2022-12-11T19:33:17.212Z,22.03
2022-12-11T19:35:44.345Z,24.30
2022-12-11T19:38:12.729Z,24.80
2022-12-11T19:40:44.341Z,23.50
2022-12-11T19:43:11.632Z,26.20
2022-12-11T19:45:42.790Z,22.10
2022-12-11T19:48:09.504Z,23.50
2022-12-11T19:50:36.488Z,24.00
2022-12-11T19:53:03.939Z,23.30
2022-12-11T19:55:30.835Z,22.30
2022-12-11T19:57:57.617Z,22.43
2022-12-11T20:00:24.866Z,25.67
2022-12-11T20:02:51.896Z,28.50
2022-12-11T20:05:21.748Z,23.57
2022-12-11T20:07:52.086Z,27.90
2022-12-11T20:10:24.401Z,26.77
2022-12-11T20:12:52.538Z,22.97
2022-12-11T20:15:20.469Z,25.53
2022-12-11T20:17:47.452Z,22.87
2022-12-11T20:20:14.192Z,20.43
2022-12-11T20:22:40.975Z,22.67
2022-12-11T20:25:08.089Z,25.43
2022-12-11T20:27:34.907Z,25.93
2022-12-11T20:30:01.874Z,22.67
2022-12-11T20:32:28.578Z,23.10
2022-12-11T20:34:56.770Z,25.10
2022-12-11T20:37:24.417Z,27.33
2022-12-11T20:39:51.466Z,27.27
2022-12-11T20:42:20.822Z,25.87
2022-12-11T20:44:49.400Z,23.43
2022-12-11T20:47:19.736Z,26.97
2022-12-11T20:49:49.748Z,25.53
2022-12-11T20:52:17.421Z,26.93
2022-12-11T20:54:44.981Z,26.63
2022-12-11T20:57:12.463Z,30.63
2022-12-11T20:59:39.266Z,29.27
2022-12-11T21:02:08.454Z,30.20
2022-12-11T21:04:41.008Z,27.70
2022-12-11T21:07:09.465Z,27.73
2022-12-11T21:09:37.020Z,34.03
2022-12-11T21:12:15.749Z,29.83
2022-12-11T21:14:42.422Z,31.77
2022-12-11T21:17:09.132Z,28.40
2022-12-11T21:19:36.515Z,30.33
2022-12-11T21:22:03.847Z,26.30
2022-12-11T21:24:31.470Z,26.00
2022-12-11T21:26:59.071Z,33.13
2022-12-11T21:29:29.274Z,28.17
2022-12-11T21:31:56.499Z,29.13
2022-12-11T21:34:25.731Z,31.90
2022-12-11T21:36:56.518Z,32.70
2022-12-11T21:39:25.305Z,28.17
2022-12-11T21:41:52.019Z,31.70
2022-12-11T21:47:08.602Z,33.20
2022-12-11T21:49:38.198Z,28.77
2022-12-11T21:52:09.027Z,32.30
2022-12-11T21:54:35.812Z,35.13
2022-12-11T21:57:02.663Z,31.20
2022-12-11T21:59:29.947Z,33.23
2022-12-11T22:01:57.077Z,29.57
2022-12-11T22:04:23.909Z,32.43
2022-12-11T22:06:50.686Z,26.43
2022-12-11T22:09:18.041Z,28.73
2022-12-11T22:11:48.216Z,29.33
2022-12-11T22:14:17.753Z,32.40
2022-12-11T22:16:47.585Z,30.83
2022-12-11T22:19:14.389Z,30.57
2022-12-11T22:21:41.126Z,33.80
2022-12-11T22:24:08.131Z,31.37
2022-12-11T22:26:37.630Z,34.20
2022-12-11T22:29:04.410Z,31.13
2022-12-11T22:31:31.118Z,28.97
2022-12-11T22:33:57.981Z,34.70
2022-12-11T22:36:26.651Z,37.93
2022-12-11T22:38:53.502Z,32.23
2022-12-11T22:41:26.150Z,35.60
2022-12-11T22:43:53.518Z,28.43
2022-12-11T22:46:24.965Z,27.77
2022-12-11T22:48:52.562Z,31.80
2022-12-11T22:51:20.101Z,30.97
2022-12-11T22:53:47.586Z,28.23
2022-12-11T22:56:14.498Z,32.47
2022-12-11T22:58:41.714Z,30.77
2022-12-11T23:01:14.458Z,32.57
2022-12-11T23:03:41.331Z,27.70
2022-12-11T23:06:11.443Z,28.13
2022-12-11T23:08:39.582Z,28.70
2022-12-11T23:11:15.379Z,29.87
2022-12-11T23:13:42.239Z,36.97
2022-12-11T23:16:09.570Z,29.50
2022-12-11T23:18:36.557Z,29.40
2022-12-11T23:21:04.241Z,30.53
2022-12-11T23:23:30.939Z,29.80
2022-12-11T23:25:57.816Z,35.17
2022-12-11T23:28:27.002Z,28.27
2022-12-11T23:30:53.828Z,31.23
2022-12-11T23:33:20.679Z,29.30
2022-12-11T23:35:47.500Z,28.40
2022-12-11T23:38:14.170Z,28.57
2022-12-11T23:40:40.864Z,33.13
2022-12-11T23:43:07.666Z,29.10
2022-12-11T23:45:34.441Z,29.63
2022-12-11T23:48:01.288Z,31.20
2022-12-11T23:50:28.207Z,29.63
2022-12-11T23:52:54.947Z,28.10
2022-12-11T23:55:21.950Z,28.27
2022-12-11T23:57:48.902Z,29.87
